KGEZ

Details ICAO KGEZ
Name Shelbyville Muni
Region United States
Timezone America/Indiana/Indianapolis (UTC-5.0)
Plans Departing 2
Arriving 6
Stats Elevation 804 ft / 245 m (AMSL)
Location 39.580827° -85.804868°
Runways 2
Magnetic Variation 4.975° W
Sunrise 2017-12-14 12:57:33 UTC / 2017-12-14 07:57:33 Local
Sunset 2017-12-14 22:21:16 UTC / 2017-12-14 17:21:16 Local
Advertisement - Login to hide

Runways

ID Width Length Bearing (true) Bearing (mag) Surface Threshold Offset Overrun Length
01 100 ft / 30 m 5,005 ft / 1,525 m 6.00° 10.98° Asphalt 0 ft / 0 m 0 ft / 0 m
09 190 ft / 58 m 2,673 ft / 815 m 90.00° 94.98° Grass 460 ft / 140 m 0 ft / 0 m
19 100 ft / 30 m 5,005 ft / 1,525 m 186.00° 190.98° Asphalt 0 ft / 0 m 0 ft / 0 m
27 190 ft / 58 m 2,673 ft / 815 m 270.00° 274.98° Grass 310 ft / 94 m 0 ft / 0 m

Map

Weather


0- 5 10 15 20 25 30 35+ Temperature / ° C

Clouds and Precipitation
Forecast for 2017-12-15 00:00 UTC. Updated 2 minutes ago

Ground ~20,000 ft ~40,000 ft Winds

METAR

KGEZ 142253Z AUTO 15003KT 10SM CLR M03/M11 A3007 RMK AO2 SLP191 T10331106

TAF

Not found

Frequencies

Recorded 121.55 MHz ASOS
Approach 127.15 MHz INDIANAPOLIS APP/DEP
Unicom 122.80 MHz CTAF/UNICOM
Warning: Do not use this data for real-world aviation or navigation. No guarantee of current accuracy is given.